createdAt,value
2022-08-03T00:01:04.262Z,1.70
2022-08-03T00:06:12.805Z,1.40
2022-08-03T00:11:26.576Z,1.50
2022-08-03T00:16:37.370Z,1.67
2022-08-03T00:21:40.992Z,1.30
2022-08-03T00:26:58.035Z,1.30
2022-08-03T00:32:03.494Z,1.33
2022-08-03T00:37:07.121Z,1.30
2022-08-03T00:42:12.086Z,1.50
2022-08-03T00:47:15.997Z,1.67
2022-08-03T00:52:19.815Z,1.77
2022-08-03T00:57:25.152Z,1.33
2022-08-03T01:02:29.663Z,1.63
2022-08-03T01:07:51.123Z,1.60
2022-08-03T01:13:05.131Z,1.55
2022-08-03T01:18:18.554Z,1.67
2022-08-03T01:23:55.702Z,1.40
2022-08-03T01:29:39.019Z,1.30
2022-08-03T01:34:53.093Z,1.35
2022-08-03T01:39:59.631Z,1.35
2022-08-03T01:45:07.926Z,1.27
2022-08-03T01:50:13.946Z,1.10
2022-08-03T01:55:20.869Z,1.10
2022-08-03T02:05:32.879Z,1.30
2022-08-03T02:10:39.161Z,1.10
2022-08-03T02:15:45.507Z,0.90
2022-08-03T02:20:50.290Z,1.07
2022-08-03T02:26:00.183Z,1.20
2022-08-03T02:31:14.493Z,1.17
2022-08-03T02:36:27.317Z,1.10
2022-08-03T02:41:37.158Z,0.95
2022-08-03T02:46:47.230Z,1.10
2022-08-03T02:51:54.030Z,1.20
2022-08-03T02:56:58.896Z,0.82
2022-08-03T03:02:05.422Z,1.00
2022-08-03T03:07:09.288Z,0.90
2022-08-03T03:12:15.706Z,1.25
2022-08-03T03:17:22.598Z,0.97
2022-08-03T03:22:26.636Z,1.08
2022-08-03T03:27:30.843Z,0.98
2022-08-03T03:32:39.907Z,1.10
2022-08-03T03:37:43.551Z,1.00
2022-08-03T03:42:47.503Z,1.00
2022-08-03T03:47:52.816Z,0.90
2022-08-03T03:52:56.602Z,1.05
2022-08-03T03:58:01.367Z,0.95
2022-08-03T04:03:06.478Z,1.08
2022-08-03T04:13:53.026Z,1.10
2022-08-03T04:19:06.145Z,0.98
2022-08-03T04:24:13.095Z,1.10
2022-08-03T04:34:22.557Z,0.95
2022-08-03T04:39:29.325Z,0.90
2022-08-03T04:44:38.036Z,1.00
2022-08-03T04:49:44.342Z,0.90
2022-08-03T04:54:50.927Z,1.00
2022-08-03T05:00:02.257Z,0.90
2022-08-03T05:05:10.205Z,1.00
2022-08-03T05:10:16.297Z,0.80
2022-08-03T05:15:20.583Z,0.90
2022-08-03T05:20:25.596Z,1.00
2022-08-03T05:25:29.528Z,0.90
2022-08-03T05:30:34.657Z,0.80
2022-08-03T05:36:01.223Z,0.90
2022-08-03T05:41:21.961Z,0.90
2022-08-03T05:46:27.522Z,1.00
2022-08-03T05:51:32.697Z,1.10
2022-08-03T05:56:36.400Z,1.00
2022-08-03T06:01:40.318Z,1.00
2022-08-03T06:06:45.537Z,0.90
2022-08-03T06:11:49.286Z,0.90
2022-08-03T06:16:52.902Z,0.88
2022-08-03T06:21:58.425Z,0.95
